sensor_id;sensor_type;location;lat;lon;timestamp;pressure;altitude;pressure_sealevel;temperature;humidity
69060;BME280;56135;37.534;-122.308;2023-04-05T00:02:04;102202.44;;;12.16;58.53
69060;BME280;56135;37.534;-122.308;2023-04-05T00:04:31;102199.78;;;12.10;59.25
69060;BME280;56135;37.534;-122.308;2023-04-05T00:06:59;102200.63;;;12.04;62.80
69060;BME280;56135;37.534;-122.308;2023-04-05T00:09:27;102198.91;;;12.08;67.46
69060;BME280;56135;37.534;-122.308;2023-04-05T00:11:53;102199.84;;;12.21;66.47
69060;BME280;56135;37.534;-122.308;2023-04-05T00:14:21;102199.88;;;12.27;67.30
69060;BME280;56135;37.534;-122.308;2023-04-05T00:16:47;102202.50;;;12.34;69.52
69060;BME280;56135;37.534;-122.308;2023-04-05T00:19:13;102197.25;;;12.38;71.29
69060;BME280;56135;37.534;-122.308;2023-04-05T00:21:40;102206.09;;;12.43;72.76
69060;BME280;56135;37.534;-122.308;2023-04-05T00:24:06;102204.34;;;12.56;73.01
69060;BME280;56135;37.534;-122.308;2023-04-05T00:26:34;102194.66;;;12.56;66.09
69060;BME280;56135;37.534;-122.308;2023-04-05T00:29:00;102198.16;;;12.54;68.48
69060;BME280;56135;37.534;-122.308;2023-04-05T00:31:28;102197.28;;;12.47;71.96
69060;BME280;56135;37.534;-122.308;2023-04-05T00:33:54;102195.47;;;12.38;67.42
69060;BME280;56135;37.534;-122.308;2023-04-05T00:36:21;102192.81;;;12.40;70.16
69060;BME280;56135;37.534;-122.308;2023-04-05T00:38:48;102190.16;;;12.37;74.00
69060;BME280;56135;37.534;-122.308;2023-04-05T00:41:14;102196.31;;;12.26;76.42
69060;BME280;56135;37.534;-122.308;2023-04-05T00:43:41;102198.06;;;12.18;79.26
69060;BME280;56135;37.534;-122.308;2023-04-05T00:46:08;102197.97;;;12.02;79.99
69060;BME280;56135;37.534;-122.308;2023-04-05T00:48:35;102196.22;;;12.01;84.33
69060;BME280;56135;37.534;-122.308;2023-04-05T00:51:01;102193.59;;;12.05;84.55
69060;BME280;56135;37.534;-122.308;2023-04-05T00:53:28;102186.50;;;12.02;84.65
69060;BME280;56135;37.534;-122.308;2023-04-05T00:55:54;102194.38;;;11.93;83.90
69060;BME280;56135;37.534;-122.308;2023-04-05T00:58:21;102197.00;;;11.87;85.01
69060;BME280;56135;37.534;-122.308;2023-04-05T01:01:06;102195.16;;;11.75;85.17
69060;BME280;56135;37.534;-122.308;2023-04-05T01:03:40;102204.78;;;11.59;86.00
69060;BME280;56135;37.534;-122.308;2023-04-05T01:11:41;102204.63;;;11.34;89.95
69060;BME280;56135;37.534;-122.308;2023-04-05T01:14:10;102205.44;;;11.28;92.86
69060;BME280;56135;37.534;-122.308;2023-04-05T01:16:36;102203.66;;;11.26;92.29
69060;BME280;56135;37.534;-122.308;2023-04-05T01:19:03;102206.41;;;11.38;94.14
69060;BME280;56135;37.534;-122.308;2023-04-05T01:24:12;102200.22;;;11.36;96.50
69060;BME280;56135;37.534;-122.308;2023-04-05T01:26:58;102194.94;;;11.38;98.70
69060;BME280;56135;37.534;-122.308;2023-04-05T01:29:38;102202.78;;;11.27;94.73
69060;BME280;56135;37.534;-122.308;2023-04-05T01:32:21;102198.34;;;11.20;96.25
69060;BME280;56135;37.534;-122.308;2023-04-05T01:35:16;102196.50;;;11.14;100.00
69060;BME280;56135;37.534;-122.308;2023-04-05T01:37:47;102193.75;;;10.97;100.00
69060;BME280;56135;37.534;-122.308;2023-04-05T01:40:15;102191.84;;;10.83;100.00
69060;BME280;56135;37.534;-122.308;2023-04-05T01:42:43;102200.63;;;10.79;100.00
69060;BME280;56135;37.534;-122.308;2023-04-05T01:45:10;102197.84;;;10.64;100.00
69060;BME280;56135;37.534;-122.308;2023-04-05T01:47:37;102212.03;;;10.77;100.00
69060;BME280;56135;37.534;-122.308;2023-04-05T01:50:03;102213.69;;;10.64;100.00
69060;BME280;56135;37.534;-122.308;2023-04-05T01:52:29;102211.09;;;10.68;100.00
69060;BME280;56135;37.534;-122.308;2023-04-05T01:54:55;102210.13;;;10.59;100.00
69060;BME280;56135;37.534;-122.308;2023-04-05T01:57:22;102218.78;;;10.44;100.00
69060;BME280;56135;37.534;-122.308;2023-04-05T01:59:48;102206.22;;;10.30;100.00
69060;BME280;56135;37.534;-122.308;2023-04-05T02:02:14;102212.28;;;10.20;100.00
69060;BME280;56135;37.534;-122.308;2023-04-05T02:04:41;102216.56;;;10.12;100.00
69060;BME280;56135;37.534;-122.308;2023-04-05T02:07:08;102212.09;;;10.05;100.00
69060;BME280;56135;37.534;-122.308;2023-04-05T02:09:34;102208.53;;;10.02;100.00
69060;BME280;56135;37.534;-122.308;2023-04-05T02:12:00;102219.03;;;9.96;100.00
69060;BME280;56135;37.534;-122.308;2023-04-05T02:14:27;102212.72;;;9.85;100.00
69060;BME280;56135;37.534;-122.308;2023-04-05T02:16:53;102215.09;;;9.66;100.00
69060;BME280;56135;37.534;-122.308;2023-04-05T02:19:22;102214.19;;;9.64;100.00
69060;BME280;56135;37.534;-122.308;2023-04-05T02:21:49;102207.03;;;9.57;100.00
69060;BME280;56135;37.534;-122.308;2023-04-05T02:24:15;102206.16;;;9.55;100.00
69060;BME280;56135;37.534;-122.308;2023-04-05T02:26:41;102201.63;;;9.48;100.00
69060;BME280;56135;37.534;-122.308;2023-04-05T02:29:07;102198.78;;;9.34;100.00
69060;BME280;56135;37.534;-122.308;2023-04-05T02:31:34;102197.03;;;9.36;100.00
69060;BME280;56135;37.534;-122.308;2023-04-05T02:34:00;102203.06;;;9.27;100.00
69060;BME280;56135;37.534;-122.308;2023-04-05T02:36:26;102197.66;;;9.18;100.00
69060;BME280;56135;37.534;-122.308;2023-04-05T02:38:53;102197.53;;;9.12;100.00
69060;BME280;56135;37.534;-122.308;2023-04-05T02:41:20;102196.72;;;9.16;100.00
69060;BME280;56135;37.534;-122.308;2023-04-05T02:43:48;102207.91;;;9.01;100.00
69060;BME280;56135;37.534;-122.308;2023-04-05T02:46:15;102216.72;;;9.03;100.00
69060;BME280;56135;37.534;-122.308;2023-04-05T02:48:41;102212.19;;;8.94;100.00
69060;BME280;56135;37.534;-122.308;2023-04-05T02:51:08;102212.88;;;8.84;100.00
69060;BME280;56135;37.534;-122.308;2023-04-05T02:53:34;102215.41;;;8.78;100.00
69060;BME280;56135;37.534;-122.308;2023-04-05T02:56:00;102210.09;;;8.76;100.00
69060;BME280;56135;37.534;-122.308;2023-04-05T02:58:26;102207.44;;;8.75;100.00
69060;BME280;56135;37.534;-122.308;2023-04-05T03:00:53;102207.28;;;8.65;100.00
69060;BME280;56135;37.534;-122.308;2023-04-05T03:03:21;102200.31;;;8.67;100.00
69060;BME280;56135;37.534;-122.308;2023-04-05T03:05:55;102204.63;;;8.64;100.00
69060;BME280;56135;37.534;-122.308;2023-04-05T03:08:21;102210.75;;;8.63;100.00
69060;BME280;56135;37.534;-122.308;2023-04-05T03:10:50;102208.88;;;8.57;100.00
69060;BME280;56135;37.534;-122.308;2023-04-05T03:13:17;102220.22;;;8.51;100.00
69060;BME280;56135;37.534;-122.308;2023-04-05T03:15:43;102205.91;;;8.40;100.00
69060;BME280;56135;37.534;-122.308;2023-04-05T03:18:09;102218.09;;;8.37;100.00
69060;BME280;56135;37.534;-122.308;2023-04-05T03:20:36;102213.72;;;8.35;100.00
69060;BME280;56135;37.534;-122.308;2023-04-05T03:23:06;102206.72;;;8.38;100.00
69060;BME280;56135;37.534;-122.308;2023-04-05T03:25:36;102216.38;;;8.37;100.00
69060;BME280;56135;37.534;-122.308;2023-04-05T03:28:02;102220.72;;;8.37;100.00
69060;BME280;56135;37.534;-122.308;2023-04-05T03:30:31;102223.28;;;8.32;100.00
69060;BME280;56135;37.534;-122.308;2023-04-05T03:32:58;102223.03;;;8.19;100.00
69060;BME280;56135;37.534;-122.308;2023-04-05T03:35:30;102224.81;;;8.21;100.00
69060;BME280;56135;37.534;-122.308;2023-04-05T03:37:56;102225.72;;;8.21;100.00
69060;BME280;56135;37.534;-122.308;2023-04-05T03:40:23;102224.63;;;8.13;100.00
69060;BME280;56135;37.534;-122.308;2023-04-05T03:42:49;102229.84;;;8.10;100.00
69060;BME280;56135;37.534;-122.308;2023-04-05T03:45:16;102230.78;;;8.12;100.00
69060;BME280;56135;37.534;-122.308;2023-04-05T03:47:43;102229.06;;;8.14;100.00
69060;BME280;56135;37.534;-122.308;2023-04-05T03:50:09;102225.41;;;8.07;100.00
69060;BME280;56135;37.534;-122.308;2023-04-05T03:52:36;102221.94;;;8.10;100.00
69060;BME280;56135;37.534;-122.308;2023-04-05T03:55:02;102226.22;;;8.05;100.00
69060;BME280;56135;37.534;-122.308;2023-04-05T03:57:29;102223.59;;;8.05;100.00
69060;BME280;56135;37.534;-122.308;2023-04-05T03:59:55;102224.25;;;7.94;100.00
69060;BME280;56135;37.534;-122.308;2023-04-05T04:02:21;102232.28;;;8.00;100.00
69060;BME280;56135;37.534;-122.308;2023-04-05T04:04:47;102233.22;;;8.02;100.00
69060;BME280;56135;37.534;-122.308;2023-04-05T04:07:13;102230.28;;;7.90;100.00
69060;BME280;56135;37.534;-122.308;2023-04-05T04:09:40;102229.47;;;7.93;100.00
69060;BME280;56135;37.534;-122.308;2023-04-05T04:12:06;102230.28;;;7.90;100.00
69060;BME280;56135;37.534;-122.308;2023-04-05T04:14:35;102230.38;;;7.93;100.00
69060;BME280;56135;37.534;-122.308;2023-04-05T04:17:01;102230.25;;;7.87;100.00
69060;BME280;56135;37.534;-122.308;2023-04-05T04:19:28;102230.28;;;7.90;100.00
69060;BME280;56135;37.534;-122.308;2023-04-05T04:21:54;102224.97;;;7.87;100.00
69060;BME280;56135;37.534;-122.308;2023-04-05T04:24:20;102232.81;;;7.84;100.00
69060;BME280;56135;37.534;-122.308;2023-04-05T04:26:48;102237.09;;;7.79;100.00
69060;BME280;56135;37.534;-122.308;2023-04-05T04:29:14;102232.72;;;7.81;100.00
69060;BME280;56135;37.534;-122.308;2023-04-05T04:31:43;102237.09;;;7.79;100.00
69060;BME280;56135;37.534;-122.308;2023-04-05T04:34:14;102237.94;;;7.78;100.00
69060;BME280;56135;37.534;-122.308;2023-04-05T04:36:43;102241.44;;;7.78;100.00
69060;BME280;56135;37.534;-122.308;2023-04-05T04:39:11;102236.28;;;7.83;100.00
69060;BME280;56135;37.534;-122.308;2023-04-05T04:41:38;102243.19;;;7.78;100.00
69060;BME280;56135;37.534;-122.308;2023-04-05T04:44:31;102242.31;;;7.77;100.00
69060;BME280;56135;37.534;-122.308;2023-04-05T04:46:57;102243.19;;;7.78;100.00
69060;BME280;56135;37.534;-122.308;2023-04-05T04:49:24;102236.16;;;7.78;100.00
69060;BME280;56135;37.534;-122.308;2023-04-05T04:51:50;102230.91;;;7.78;100.00
69060;BME280;56135;37.534;-122.308;2023-04-05T04:54:16;102232.78;;;7.82;100.00
69060;BME280;56135;37.534;-122.308;2023-04-05T04:56:45;102233.47;;;7.75;100.00
69060;BME280;56135;37.534;-122.308;2023-04-05T04:59:12;102229.94;;;7.73;100.00
69060;BME280;56135;37.534;-122.308;2023-04-05T05:01:38;102232.63;;;7.76;100.00
69060;BME280;56135;37.534;-122.308;2023-04-05T05:04:05;102228.25;;;7.77;100.00
69060;BME280;56135;37.534;-122.308;2023-04-05T05:06:31;102230.91;;;7.78;100.00
69060;BME280;56135;37.534;-122.308;2023-04-05T05:08:58;102236.94;;;7.73;100.00
69060;BME280;56135;37.534;-122.308;2023-04-05T05:11:24;102227.19;;;7.68;100.00
69060;BME280;56135;37.534;-122.308;2023-04-05T05:13:50;102233.31;;;7.69;100.00
69060;BME280;56135;37.534;-122.308;2023-04-05T05:16:17;102236.94;;;7.73;100.00
69060;BME280;56135;37.534;-122.308;2023-04-05T05:18:49;102241.31;;;7.72;100.00
69060;BME280;56135;37.534;-122.308;2023-04-05T05:21:16;102240.38;;;7.70;100.00
69060;BME280;56135;37.534;-122.308;2023-04-05T05:23:42;102232.63;;;7.76;100.00
69060;BME280;56135;37.534;-122.308;2023-04-05T05:26:14;102228.19;;;7.74;100.00
69060;BME280;56135;37.534;-122.308;2023-04-05T05:28:41;102231.59;;;7.70;100.00
69060;BME280;56135;37.534;-122.308;2023-04-05T05:31:10;102229.81;;;7.68;100.00
69060;BME280;56135;37.534;-122.308;2023-04-05T05:33:36;102228.94;;;7.68;100.00
69060;BME280;56135;37.534;-122.308;2023-04-05T05:36:05;102214.03;;;7.68;100.00
69060;BME280;56135;37.534;-122.308;2023-04-05T05:38:32;102218.34;;;7.65;100.00
69060;BME280;56135;37.534;-122.308;2023-04-05T05:40:58;102214.09;;;7.72;100.00
69060;BME280;56135;37.534;-122.308;2023-04-05T05:43:27;102215.03;;;7.74;100.00
69060;BME280;56135;37.534;-122.308;2023-04-05T05:45:53;102207.84;;;7.66;100.00
69060;BME280;56135;37.534;-122.308;2023-04-05T05:48:25;102208.78;;;7.68;100.00
69060;BME280;56135;37.534;-122.308;2023-04-05T05:50:59;102217.53;;;7.69;100.00
69060;BME280;56135;37.534;-122.308;2023-04-05T05:53:26;102219.25;;;7.65;100.00
69060;BME280;56135;37.534;-122.308;2023-04-05T05:55:55;102217.25;;;7.55;100.00
69060;BME280;56135;37.534;-122.308;2023-04-05T05:58:24;102212.88;;;7.57;100.00
69060;BME280;56135;37.534;-122.308;2023-04-05T06:00:54;102210.19;;;7.54;100.00
69060;BME280;56135;37.534;-122.308;2023-04-05T06:03:29;102212.84;;;7.54;100.00
69060;BME280;56135;37.534;-122.308;2023-04-05T06:05:58;102212.63;;;7.45;100.00
69060;BME280;56135;37.534;-122.308;2023-04-05T06:08:30;102209.97;;;7.45;100.00
69060;BME280;56135;37.534;-122.308;2023-04-05T06:11:00;102206.34;;;7.40;100.00
69060;BME280;56135;37.534;-122.308;2023-04-05T06:13:35;102216.03;;;7.41;100.00
69060;BME280;56135;37.534;-122.308;2023-04-05T06:16:07;102207.47;;;7.49;100.00
69060;BME280;56135;37.534;-122.308;2023-04-05T06:18:36;102203.03;;;7.47;100.00
69060;BME280;56135;37.534;-122.308;2023-04-05T06:21:02;102214.28;;;7.41;100.00
69060;BME280;56135;37.534;-122.308;2023-04-05T06:23:28;102211.63;;;7.40;100.00
69060;BME280;56135;37.534;-122.308;2023-04-05T06:25:55;102212.31;;;7.31;100.00
69060;BME280;56135;37.534;-122.308;2023-04-05T06:28:21;102216.78;;;7.35;100.00
69060;BME280;56135;37.534;-122.308;2023-04-05T06:30:47;102215.72;;;7.27;100.00
69060;BME280;56135;37.534;-122.308;2023-04-05T06:33:13;102213.91;;;7.24;100.00
69060;BME280;56135;37.534;-122.308;2023-04-05T06:35:39;102216.41;;;7.21;100.00
69060;BME280;56135;37.534;-122.308;2023-04-05T06:38:05;102215.63;;;7.24;100.00
69060;BME280;56135;37.534;-122.308;2023-04-05T06:40:32;102222.69;;;7.26;100.00
69060;BME280;56135;37.534;-122.308;2023-04-05T06:42:58;102227.88;;;7.23;100.00
69060;BME280;56135;37.534;-122.308;2023-04-05T06:45:24;102219.91;;;7.20;100.00
69060;BME280;56135;37.534;-122.308;2023-04-05T06:47:50;102221.66;;;7.20;100.00
69060;BME280;56135;37.534;-122.308;2023-04-05T06:50:17;102219.03;;;7.20;100.00
69060;BME280;56135;37.534;-122.308;2023-04-05T06:52:43;102225.09;;;7.17;100.00
69060;BME280;56135;37.534;-122.308;2023-04-05T06:55:09;102226.03;;;7.19;100.00
69060;BME280;56135;37.534;-122.308;2023-04-05T06:57:35;102216.41;;;7.21;100.00
69060;BME280;56135;37.534;-122.308;2023-04-05T07:00:02;102218.81;;;7.12;100.00
69060;BME280;56135;37.534;-122.308;2023-04-05T07:02:33;102213.38;;;7.04;100.00
69060;BME280;56135;37.534;-122.308;2023-04-05T07:04:59;102220.34;;;7.02;100.00
69060;BME280;56135;37.534;-122.308;2023-04-05T07:07:37;102221.41;;;7.10;100.00
69060;BME280;56135;37.534;-122.308;2023-04-05T07:10:04;102218.59;;;7.03;100.00
69060;BME280;56135;37.534;-122.308;2023-04-05T07:12:30;102222.94;;;7.00;100.00
69060;BME280;56135;37.534;-122.308;2023-04-05T07:14:58;102216.75;;;6.98;100.00
69060;BME280;56135;37.534;-122.308;2023-04-05T07:17:25;102221.97;;;6.97;100.00
69060;BME280;56135;37.534;-122.308;2023-04-05T07:19:51;102218.25;;;6.89;100.00
69060;BME280;56135;37.534;-122.308;2023-04-05T07:22:17;102220.72;;;6.82;100.00
69060;BME280;56135;37.534;-122.308;2023-04-05T07:24:46;102218.88;;;6.80;100.00
69060;BME280;56135;37.534;-122.308;2023-04-05T07:27:14;102223.13;;;6.75;100.00
69060;BME280;56135;37.534;-122.308;2023-04-05T07:29:40;102225.78;;;6.76;100.00
69060;BME280;56135;37.534;-122.308;2023-04-05T07:32:08;102235.63;;;6.83;100.00
69060;BME280;56135;37.534;-122.308;2023-04-05T07:34:34;102239.03;;;6.79;100.00
69060;BME280;56135;37.534;-122.308;2023-04-05T07:37:03;102238.03;;;6.76;100.00
69060;BME280;56135;37.534;-122.308;2023-04-05T07:39:30;102231.75;;;6.69;100.00
69060;BME280;56135;37.534;-122.308;2023-04-05T07:41:56;102233.53;;;6.70;100.00
69060;BME280;56135;37.534;-122.308;2023-04-05T07:44:22;102235.16;;;6.66;100.00
69060;BME280;56135;37.534;-122.308;2023-04-05T07:46:48;102231.66;;;6.66;100.00
69060;BME280;56135;37.534;-122.308;2023-04-05T07:49:15;102229.06;;;6.67;100.00
69060;BME280;56135;37.534;-122.308;2023-04-05T07:51:41;102235.09;;;6.63;100.00
69060;BME280;56135;37.534;-122.308;2023-04-05T07:54:08;102234.16;;;6.61;100.00
69060;BME280;56135;37.534;-122.308;2023-04-05T07:56:35;102238.53;;;6.61;100.00
69060;BME280;56135;37.534;-122.308;2023-04-05T07:59:02;102234.94;;;6.59;100.00
69060;BME280;56135;37.534;-122.308;2023-04-05T08:01:28;102228.81;;;6.58;100.00
69060;BME280;56135;37.534;-122.308;2023-04-05T08:03:56;102229.84;;;6.63;100.00
69060;BME280;56135;37.534;-122.308;2023-04-05T08:06:22;102226.16;;;6.57;100.00
69060;BME280;56135;37.534;-122.308;2023-04-05T08:08:52;102237.56;;;6.59;100.00
69060;BME280;56135;37.534;-122.308;2023-04-05T08:11:18;102236.84;;;6.64;100.00
69060;BME280;56135;37.534;-122.308;2023-04-05T08:13:44;102237.53;;;6.57;100.00
69060;BME280;56135;37.534;-122.308;2023-04-05T08:16:11;102231.44;;;6.58;100.00
69060;BME280;56135;37.534;-122.308;2023-04-05T08:18:37;102229.56;;;6.53;100.00
69060;BME280;56135;37.534;-122.308;2023-04-05T08:21:04;102233.31;;;6.62;100.00
69060;BME280;56135;37.534;-122.308;2023-04-05T08:23:30;102226.28;;;6.61;100.00
69060;BME280;56135;37.534;-122.308;2023-04-05T08:25:57;102232.38;;;6.60;100.00
69060;BME280;56135;37.534;-122.308;2023-04-05T08:28:23;102232.28;;;6.57;100.00
69060;BME280;56135;37.534;-122.308;2023-04-05T08:30:53;102230.84;;;6.68;100.00
69060;BME280;56135;37.534;-122.308;2023-04-05T08:33:20;102230.84;;;6.68;100.00
69060;BME280;56135;37.534;-122.308;2023-04-05T08:35:46;102227.34;;;6.70;100.00
69060;BME280;56135;37.534;-122.308;2023-04-05T08:38:13;102228.31;;;6.72;100.00
69060;BME280;56135;37.534;-122.308;2023-04-05T08:40:44;102231.81;;;6.72;100.00
69060;BME280;56135;37.534;-122.308;2023-04-05T08:45:49;102233.41;;;6.67;100.00
69060;BME280;56135;37.534;-122.308;2023-04-05T08:48:17;102231.56;;;6.63;100.00
69060;BME280;56135;37.534;-122.308;2023-04-05T08:50:51;102227.25;;;6.65;100.00
69060;BME280;56135;37.534;-122.308;2023-04-05T08:53:18;102227.09;;;6.60;100.00
69060;BME280;56135;37.534;-122.308;2023-04-05T08:55:49;102220.22;;;6.64;100.00
69060;BME280;56135;37.534;-122.308;2023-04-05T08:58:20;102223.59;;;6.60;100.00
69060;BME280;56135;37.534;-122.308;2023-04-05T09:00:52;102218.28;;;6.57;100.00
69060;BME280;56135;37.534;-122.308;2023-04-05T09:03:30;102216.34;;;6.51;100.00
69060;BME280;56135;37.534;-122.308;2023-04-05T09:06:03;102212.78;;;6.47;100.00
69060;BME280;56135;37.534;-122.308;2023-04-05T09:08:32;102211.88;;;6.47;100.00
69060;BME280;56135;37.534;-122.308;2023-04-05T09:10:58;102209.94;;;6.40;100.00
69060;BME280;56135;37.534;-122.308;2023-04-05T09:13:25;102203.66;;;6.34;100.00
69060;BME280;56135;37.534;-122.308;2023-04-05T09:15:51;102193.97;;;6.32;100.00
69060;BME280;56135;37.534;-122.308;2023-04-05T09:18:17;102193.78;;;6.26;100.00
69060;BME280;56135;37.534;-122.308;2023-04-05T09:20:43;102192.91;;;6.25;100.00
69060;BME280;56135;37.534;-122.308;2023-04-05T09:23:10;102186.63;;;6.20;100.00
69060;BME280;56135;37.534;-122.308;2023-04-05T09:25:37;102199.84;;;6.23;100.00
69060;BME280;56135;37.534;-122.308;2023-04-05T09:28:07;102197.06;;;6.17;100.00
69060;BME280;56135;37.534;-122.308;2023-04-05T09:30:34;102190.81;;;6.13;100.00
69060;BME280;56135;37.534;-122.308;2023-04-05T09:33:03;102193.31;;;6.09;100.00
69060;BME280;56135;37.534;-122.308;2023-04-05T09:35:32;102197.69;;;6.10;100.00
69060;BME280;56135;37.534;-122.308;2023-04-05T09:38:02;102190.72;;;6.09;100.00
69060;BME280;56135;37.534;-122.308;2023-04-05T09:40:44;102186.28;;;6.08;100.00
69060;BME280;56135;37.534;-122.308;2023-04-05T09:43:12;102186.94;;;6.00;100.00
69060;BME280;56135;37.534;-122.308;2023-04-05T09:45:40;102186.84;;;5.97;100.00
69060;BME280;56135;37.534;-122.308;2023-04-05T09:48:08;102189.38;;;5.94;100.00
69060;BME280;56135;37.534;-122.308;2023-04-05T09:50:34;102193.59;;;5.89;100.00
69060;BME280;56135;37.534;-122.308;2023-04-05T09:53:09;102188.94;;;5.80;100.00
69060;BME280;56135;37.534;-122.308;2023-04-05T09:55:40;102186.41;;;5.83;100.00
69060;BME280;56135;37.534;-122.308;2023-04-05T09:58:18;102185.34;;;5.77;100.00
69060;BME280;56135;37.534;-122.308;2023-04-05T10:00:50;102189.63;;;5.73;100.00
69060;BME280;56135;37.534;-122.308;2023-04-05T10:03:19;102178.97;;;5.68;100.00
69060;BME280;56135;37.534;-122.308;2023-04-05T10:05:45;102173.56;;;5.62;100.00
69060;BME280;56135;37.534;-122.308;2023-04-05T10:08:16;102174.78;;;5.46;100.00
69060;BME280;56135;37.534;-122.308;2023-04-05T10:10:46;102171.38;;;5.49;100.00
69060;BME280;56135;37.534;-122.308;2023-04-05T10:13:13;102160.06;;;5.50;100.00
69060;BME280;56135;37.534;-122.308;2023-04-05T10:15:42;102164.28;;;5.45;100.00
69060;BME280;56135;37.534;-122.308;2023-04-05T10:18:17;102157.06;;;5.38;100.00
69060;BME280;56135;37.534;-122.308;2023-04-05T10:20:44;102163.19;;;5.38;100.00
69060;BME280;56135;37.534;-122.308;2023-04-05T10:23:23;102161.53;;;5.40;100.00
69060;BME280;56135;37.534;-122.308;2023-04-05T10:28:36;102162.09;;;5.31;100.00
69060;BME280;56135;37.534;-122.308;2023-04-05T10:34:07;102161.81;;;5.22;100.00
69060;BME280;56135;37.534;-122.308;2023-04-05T10:36:44;102163.31;;;5.14;100.00
69060;BME280;56135;37.534;-122.308;2023-04-05T10:39:26;102164.09;;;5.11;100.00
69060;BME280;56135;37.534;-122.308;2023-04-05T10:41:54;102165.63;;;5.05;100.00
69060;BME280;56135;37.534;-122.308;2023-04-05T10:44:25;102164.59;;;4.99;100.00
69060;BME280;56135;37.534;-122.308;2023-04-05T10:46:52;102166.19;;;4.96;100.00
69060;BME280;56135;37.534;-122.308;2023-04-05T10:49:45;102163.44;;;4.91;100.00
69060;BME280;56135;37.534;-122.308;2023-04-05T10:52:16;102163.34;;;4.88;100.00
69060;BME280;56135;37.534;-122.308;2023-04-05T10:54:43;102162.31;;;4.83;100.00
69060;BME280;56135;37.534;-122.308;2023-04-05T10:57:10;102154.31;;;4.80;100.00
69060;BME280;56135;37.534;-122.308;2023-04-05T10:59:44;102154.19;;;4.75;100.00
69060;BME280;56135;37.534;-122.308;2023-04-05T11:02:12;102149.66;;;4.70;100.00
69060;BME280;56135;37.534;-122.308;2023-04-05T11:04:39;102154.94;;;4.71;100.00
69060;BME280;56135;37.534;-122.308;2023-04-05T11:07:15;102148.72;;;4.69;100.00
69060;BME280;56135;37.534;-122.308;2023-04-05T11:10:03;102152.91;;;4.64;100.00
69060;BME280;56135;37.534;-122.308;2023-04-05T11:18:11;102158.88;;;4.60;100.00
69060;BME280;56135;37.534;-122.308;2023-04-05T11:20:53;102150.84;;;4.54;100.00
69060;BME280;56135;37.534;-122.308;2023-04-05T11:23:23;102157.56;;;4.47;100.00
69060;BME280;56135;37.534;-122.308;2023-04-05T11:25:55;102156.72;;;4.48;100.00
69060;BME280;56135;37.534;-122.308;2023-04-05T11:28:30;102150.56;;;4.46;100.00
69060;BME280;56135;37.534;-122.308;2023-04-05T11:31:18;102151.31;;;4.42;100.00
69060;BME280;56135;37.534;-122.308;2023-04-05T11:36:28;102156.25;;;4.34;100.00
69060;BME280;56135;37.534;-122.308;2023-04-05T11:44:20;102164.84;;;4.30;100.00
69060;BME280;56135;37.534;-122.308;2023-04-05T11:46:48;102163.72;;;4.23;100.00
69060;BME280;56135;37.534;-122.308;2023-04-05T11:49:14;102165.38;;;4.21;100.00
69060;BME280;56135;37.534;-122.308;2023-04-05T11:51:41;102158.50;;;4.23;100.00
69060;BME280;56135;37.534;-122.308;2023-04-05T11:54:08;102162.00;;;4.24;100.00
69060;BME280;56135;37.534;-122.308;2023-04-05T11:56:34;102153.03;;;4.17;100.00
69060;BME280;56135;37.534;-122.308;2023-04-05T11:59:01;102147.63;;;4.12;100.00
69060;BME280;56135;37.534;-122.308;2023-04-05T12:01:27;102158.03;;;4.11;100.00
69060;BME280;56135;37.534;-122.308;2023-04-05T12:03:55;102158.81;;;4.08;100.00
69060;BME280;56135;37.534;-122.308;2023-04-05T12:06:22;102166.50;;;4.04;100.00
69060;BME280;56135;37.534;-122.308;2023-04-05T12:08:49;102154.22;;;4.01;100.00
69060;BME280;56135;37.534;-122.308;2023-04-05T12:11:22;102156.81;;;4.01;100.00
69060;BME280;56135;37.534;-122.308;2023-04-05T12:13:50;102153.19;;;3.97;100.00
69060;BME280;56135;37.534;-122.308;2023-04-05T12:16:18;102156.47;;;3.92;100.00
69060;BME280;56135;37.534;-122.308;2023-04-05T12:18:55;102153.00;;;3.91;100.00
69060;BME280;56135;37.534;-122.308;2023-04-05T12:21:22;102150.25;;;3.88;100.00
69060;BME280;56135;37.534;-122.308;2023-04-05T12:23:49;102154.63;;;3.89;100.00
69060;BME280;56135;37.534;-122.308;2023-04-05T12:26:16;102153.81;;;3.90;100.00
69060;BME280;56135;37.534;-122.308;2023-04-05T12:28:49;102157.16;;;3.86;100.00
69060;BME280;56135;37.534;-122.308;2023-04-05T12:31:16;102161.47;;;3.86;100.00
69060;BME280;56135;37.534;-122.308;2023-04-05T12:33:43;102160.50;;;3.82;100.00
69060;BME280;56135;37.534;-122.308;2023-04-05T12:36:09;102156.91;;;3.80;100.00
69060;BME280;56135;37.534;-122.308;2023-04-05T12:38:36;102155.94;;;3.78;100.00
69060;BME280;56135;37.534;-122.308;2023-04-05T12:41:03;102163.56;;;3.72;100.00
69060;BME280;56135;37.534;-122.308;2023-04-05T12:43:39;102159.13;;;3.69;100.00
69060;BME280;56135;37.534;-122.308;2023-04-05T12:46:10;102157.22;;;3.65;100.00
69060;BME280;56135;37.534;-122.308;2023-04-05T12:48:37;102160.13;;;3.73;100.00
69060;BME280;56135;37.534;-122.308;2023-04-05T12:51:15;102164.09;;;3.86;100.00
69060;BME280;56135;37.534;-122.308;2023-04-05T12:53:45;102163.09;;;3.82;100.00
69060;BME280;56135;37.534;-122.308;2023-04-05T12:56:13;102164.69;;;3.78;100.00
69060;BME280;56135;37.534;-122.308;2023-04-05T12:58:40;102160.25;;;3.76;100.00